header
chart

Reported and forecast weather at local airports

Important: not to be used for flight planning purposes.


EGBB METAR fetched   Wednesday 8th Apr @ 13:41:20
EGBB 081220Z VRB02KT CAVOK 19/05 Q1025

EGCC METAR fetched   Wednesday 8th Apr @ 13:41:11
EGCC 081220Z VRB04KT CAVOK 18/06 Q1025

EGGP METAR fetched   Wednesday 8th Apr @ 13:41:13
EGGP 081220Z 11005KT 080V160 CAVOK 19/08 Q1025

EGNH METAR fetched   Wednesday 8th Apr @ 13:41:16
EGNH 081220Z VRB03KT 9999 FEW045 16/05 Q1025

EGNM METAR fetched   Wednesday 8th Apr @ 13:41:18
EGNM 081220Z 21006KT 180V260 9999 SCT045 16/06 Q1024

EGOV METAR fetched   Wednesday 8th Apr @ 13:41:22
EGOV 081150Z 23006KT 9999 FEW043 14/04 Q1025 NOSIG RMK BLU BLU


EGBB TAF fetched   Wednesday 8th Apr @ 13:41:21
TAF EGBB 081100Z 0812/0912 VRB04KT 9999 SCT045 PROB30 TEMPO 0815/0818 8000 -SHRA PROB30 0902/0907 8000 BECMG 0909/0912 10010KT

EGCC TAF fetched   Wednesday 8th Apr @ 13:41:12
TAF EGCC 081104Z 0812/0918 27005KT 9999 FEW040 PROB30 0900/0908 8000 BECMG 0909/0912 10010KT

EGGP TAF fetched   Wednesday 8th Apr @ 13:41:15
TAF EGGP 081104Z 0812/0912 18005KT 9999 FEW040 BECMG 0814/0817 32010KT BECMG 0817/0821 VRB02KT PROB30 0902/0908 8000 BECMG 0909/0912 12010KT

EGNM TAF fetched   Wednesday 8th Apr @ 13:41:19
TAF EGNM 081103Z 0812/0816 17007KT 9999 FEW040 PROB30 0812/0816 27010KT

EGOV TAF fetched   Wednesday 8th Apr @ 13:41:24
TAF TAF EGOV 190525Z 1906/1918 04008KT CAVOK PROB30 TEMPO 1906/1912 6000 SHRA TEMPO 1912/1915 4000 +SHRA SCT020 BKN030CB PROB30 TEMPO 1913/1915 VRBG20G30KT 2500 TSGR BKN012

Every effort is made to ensure that this information is free from errors but as it is provided by a third party the accuracy of the reports cannot be guaranteed.